KFOD

Fort Dodge Regional Airport

Fort Dodge, Iowa, USA
METAR KFOD 201156Z AUTO 00000KT 9SM CLR M04/M06 A2983 RMK AO2 SLP141 T10441061 10000 21044 53012 FZRANO
Observed Flight Rules
Jan-20 @ 11:56 UTC (an hour ago) Visual Flight Rules
Wind Visibility Clouds
Calm 9 miles
  • Clear skies
Temperatures Readings
Current -4°C / 25°F
Dewpoint -6°C / 21°F
Humidity 86%
Altimeter 29.83" Hg
Pressure 1014.1 hPa
Elevation 355
METAR KFOD 201156Z AUTO 00000KT 9SM CLR M04/M06 A2983 RMK AO2 SLP141 T10441061 10000 21044 53012 FZRANO
Observed Flight Rules
Jan-20 @ 11:56 UTC
(an hour ago)
VFR
Wind Visibility
Calm 9 miles
Clouds
  • Clear skies
Temperature Dewpoint
-4°C / 25°F -6°C / 21°F
Humidity Altimeter Pressure
86% 29.83" Hg 1014.1 hPa